Marte — 9HA2059 — position and weather

sailwx.info

Track history (hours):
 
Tides and Currents Weather Stations Pressure Air Temp Water Temp Dewpoint Dewpoint Depression Visibility Wind Speed Wind Dir Waves Ship Positions

Marte

Last reported at 2018-May-04 05:12 UTC. Time now 2018-May-28 09:36 UTC.
Position N 10°51' W 061°53'.
Warning: this ship's position is 24 days out of date.

Length 75 m; draft 6.1 m.

Type: Tanker. MMSI: 249891000.

Date/timePositionNaut miles runAvg speedWind from/ knotsBaromVisibWave heightAir tempDewpointWater temp
2018-May-04 05:12N 10°51' W 061°53'2 9.6
2018-May-04 04:59N 10°50' W 061°52'510.1
2018-May-04 04:30N 10°46' W 061°48'5 9.9
2018-May-04 03:58N 10°41' W 061°48'4 8.8
2018-May-04 03:30N 10°37' W 061°46'5 9.7
2018-May-04 03:00N 10°33' W 061°42'5 9.5
2018-May-04 02:30N 10°30' W 061°39'5 9.4
2018-May-04 02:00N 10°27' W 061°36'5 9.2
2018-May-04 01:30N 10°23' W 061°33'4 0.3
2018-May-03 15:07N 10°23' W 061°29'0 0.0
2018-May-03 15:00N 10°23' W 061°29'2 4.3
2018-May-03 14:30N 10°23' W 061°31'0 0.7
2018-May-03 13:59N 10°23' W 061°31'0 0.0
2018-May-03 13:26N 10°22' W 061°31'0 0.0
2018-May-03 12:59N 10°23' W 061°31'0 0.0
2018-May-03 12:29N 10°23' W 061°31'0 0.0
2018-May-03 11:47N 10°22' W 061°31'0 0.1
2018-May-03 11:26N 10°22' W 061°31'0 0.0
2018-May-03 10:56N 10°22' W 061°31'0 0.0
2018-May-03 10:29N 10°22' W 061°31'0 0.0
2018-May-03 09:56N 10°22' W 061°31'0 0.0
2018-May-03 09:29N 10°22' W 061°31'0 0.0
2018-May-03 08:59N 10°22' W 061°31'0 0.0
2018-May-03 08:26N 10°22' W 061°31'0 0.0
2018-May-03 07:56N 10°22' W 061°31'0 0.0
2018-May-03 07:29N 10°22' W 061°31'0 0.0
2018-May-03 06:59N 10°22' W 061°31'0 0.0
2018-May-03 06:29N 10°22' W 061°31'0 0.0
2018-May-03 05:56N 10°22' W 061°31'0 0.0
2018-May-03 05:29N 10°22' W 061°31'0 0.0
2018-May-03 04:59N 10°22' W 061°31'0 0.0
2018-May-03 04:26N 10°22' W 061°31'0 0.0
2018-May-03 03:59N 10°22' W 061°31'0 0.0
2018-May-03 03:29N 10°22' W 061°31'0 0.0
2018-May-03 02:59N 10°22' W 061°31'0 0.0
2018-May-03 02:29N 10°22' W 061°31'0 0.0
2018-May-03 01:59N 10°22' W 061°31'0 0.0
2018-May-03 01:29N 10°22' W 061°31'0 0.0
2018-May-03 00:59N 10°22' W 061°31'0 0.0
2018-May-03 00:29N 10°22' W 061°31'0 0.0
2018-May-02 23:59N 10°22' W 061°31'0 0.0
2018-May-02 23:29N 10°22' W 061°31'0 0.0
2018-May-02 22:50N 10°22' W 061°31'0 0.0
2018-May-02 22:29N 10°22' W 061°31'0 0.0
2018-May-02 21:59N 10°22' W 061°31'0 0.0
2018-May-02 21:29N 10°22' W 061°31'0 0.0
2018-May-02 20:56N 10°22' W 061°31'0 0.0
2018-May-02 20:26N 10°22' W 061°31'0 0.0
2018-May-02 19:44N 10°22' W 061°31'0 0.0
2018-May-02 19:29N 10°22' W 061°31'0 0.0
2018-May-02 18:56N 10°22' W 061°31'0 0.0
2018-May-02 18:29N 10°22' W 061°31'0 0.0
2018-May-02 17:56N 10°22' W 061°31'0 0.0
2018-May-02 17:29N 10°22' W 061°31'0 0.0
2018-May-02 16:56N 10°22' W 061°31'0 0.0
2018-May-02 16:23N 10°22' W 061°31'0 0.0
2018-May-02 15:59N 10°22' W 061°31'0 0.0
2018-May-02 15:29N 10°22' W 061°31'0 0.0
2018-May-02 14:59N 10°22' W 061°31'0 0.0
2018-May-02 14:29N 10°22' W 061°31'0 0.0
2018-May-02 13:59N 10°22' W 061°31'0 0.0
2018-May-02 13:26N 10°22' W 061°31'0 0.0
2018-May-02 12:59N 10°22' W 061°31'0 0.0
2018-May-02 12:29N 10°22' W 061°31'0 0.0
2018-May-02 11:56N 10°22' W 061°31'0 0.0
2018-May-02 11:29N 10°22' W 061°31'0 0.0
2018-May-02 10:56N 10°22' W 061°31'0 0.0
2018-May-02 10:29N 10°22' W 061°31'0 0.0
2018-May-02 09:59N 10°22' W 061°31'0 0.0
2018-May-02 09:29N 10°22' W 061°31'0 0.0
2018-May-02 08:59N 10°22' W 061°31'0 0.0
2018-May-02 08:29N 10°22' W 061°31'0 0.0
2018-May-02 07:59N 10°22' W 061°31'0 0.0
2018-May-02 07:29N 10°22' W 061°31'0 0.0
2018-May-02 06:59N 10°22' W 061°31'0 0.0
2018-May-02 06:29N 10°22' W 061°31'0 0.0
2018-May-02 05:59N 10°22' W 061°31'0 0.0
2018-May-02 05:29N 10°22' W 061°31'0 0.0
2018-May-02 04:59N 10°22' W 061°31'0 0.0
2018-May-02 04:23N 10°22' W 061°31'0 0.0
2018-May-02 03:59N 10°22' W 061°31'0 0.0
2018-May-02 03:26N 10°22' W 061°31'0 0.0
2018-May-02 02:59N 10°22' W 061°31'0 0.0
2018-May-02 02:29N 10°22' W 061°31'0 0.0
2018-May-02 01:59N 10°22' W 061°31'0 0.0
2018-May-02 01:26N 10°22' W 061°31'0 0.0
2018-May-02 00:59N 10°22' W 061°31'0 0.0
2018-May-02 00:26N 10°22' W 061°31'0 0.0
2018-May-01 23:59N 10°22' W 061°31'0 0.0
2018-May-01 23:29N 10°22' W 061°31'0 0.0
2018-May-01 22:59N 10°22' W 061°31'0 0.0
2018-May-01 22:29N 10°22' W 061°31'0 0.0
2018-May-01 21:59N 10°22' W 061°31'0 0.0
2018-May-01 21:29N 10°22' W 061°31'0 0.0
2018-May-01 20:59N 10°22' W 061°31'0 0.0
2018-May-01 20:29N 10°22' W 061°31'0 0.0
2018-May-01 19:50N 10°22' W 061°31'0 0.0
2018-May-01 19:26N 10°22' W 061°31'0 0.0
2018-May-01 18:56N 10°22' W 061°31'0 0.0
2018-May-01 18:29N 10°22' W 061°31'0 0.0
2018-May-01 17:59N 10°22' W 061°31'0 0.0
2018-May-01 17:29N 10°22' W 061°31'0 0.0
2018-May-01 16:59N 10°22' W 061°31'0 0.0
2018-May-01 16:26N 10°22' W 061°31'0 0.0
2018-May-01 15:59N 10°22' W 061°31'0 0.0
2018-May-01 15:29N 10°22' W 061°31'0 0.0
2018-May-01 14:53N 10°22' W 061°31'0 0.0
2018-May-01 14:29N 10°22' W 061°31'0 0.1
2018-May-01 13:59N 10°22' W 061°31'0 0.0
2018-May-01 13:29N 10°22' W 061°31'0 0.0
2018-May-01 12:56N 10°22' W 061°31'0 0.0
2018-May-01 12:29N 10°22' W 061°31'0 0.0
2018-May-01 11:53N 10°22' W 061°31'0 0.0
2018-May-01 11:29N 10°22' W 061°31'0 0.0
2018-May-01 10:59N 10°22' W 061°31'0 0.0
2018-May-01 10:29N 10°22' W 061°31'0 0.0
2018-May-01 09:56N 10°22' W 061°31'0 0.0
2018-May-01 09:29N 10°22' W 061°31'0 0.0
2018-May-01 08:59N 10°22' W 061°31'0 0.0
2018-May-01 08:23N 10°22' W 061°31'0 0.0
2018-May-01 07:56N 10°22' W 061°31'0 0.0
2018-May-01 07:29N 10°22' W 061°31'0 0.0
2018-May-01 06:59N 10°23' W 061°31'0 0.0
2018-May-01 06:20N 10°22' W 061°31'0 0.1
2018-May-01 05:59N 10°23' W 061°31'0 0.0
2018-May-01 05:29N 10°23' W 061°31'0 0.0
2018-May-01 04:47N 10°23' W 061°31'0 0.1
2018-May-01 04:26N 10°22' W 061°31'0 0.0
2018-May-01 03:59N 10°22' W 061°31'0 0.0
2018-May-01 03:26N 10°22' W 061°31'0 0.0
2018-May-01 02:59N 10°22' W 061°31'0 0.0
2018-May-01 02:29N 10°22' W 061°31'0 0.0
2018-May-01 01:59N 10°22' W 061°31'0 0.0
2018-May-01 01:26N 10°22' W 061°31'0 0.0
2018-May-01 00:56N 10°22' W 061°31'0 0.0
2018-May-01 00:26N 10°22' W 061°31'0 0.0
2018-Apr-30 23:56N 10°22' W 061°31'0 0.0
2018-Apr-30 23:20N 10°22' W 061°31'0 0.0
2018-Apr-30 22:56N 10°22' W 061°31'0 0.0
2018-Apr-30 22:29N 10°22' W 061°31'0 0.0
2018-Apr-30 21:56N 10°22' W 061°31'0 0.1
2018-Apr-30 21:29N 10°22' W 061°31'0 0.0
2018-Apr-30 20:59N 10°22' W 061°31'0 0.0
2018-Apr-30 20:23N 10°22' W 061°31'0 0.0
2018-Apr-30 19:53N 10°22' W 061°31'0 0.0
2018-Apr-30 18:56N 10°22' W 061°31'0 0.1
2018-Apr-30 18:26N 10°23' W 061°31'0 0.1
2018-Apr-30 17:59N 10°22' W 061°31'0 0.0
2018-Apr-30 17:29N 10°22' W 061°31'0 0.0
2018-Apr-30 16:59N 10°22' W 061°31'0 0.0
2018-Apr-30 16:29N 10°22' W 061°31'0 0.0
2018-Apr-30 15:59N 10°22' W 061°31'0 0.0
2018-Apr-30 15:29N 10°22' W 061°31'0 0.0
2018-Apr-30 14:56N 10°22' W 061°31'0 0.0
2018-Apr-30 14:26N 10°22' W 061°31'0 0.0
2018-Apr-30 13:59N 10°22' W 061°31'0 0.0
2018-Apr-30 13:26N 10°22' W 061°31'0 0.0
2018-Apr-30 12:56N 10°22' W 061°31'0 0.0
2018-Apr-30 12:29N 10°22' W 061°31'0 0.0
2018-Apr-30 11:56N 10°22' W 061°31'0 0.0
2018-Apr-30 11:26N 10°22' W 061°31'0 0.0
2018-Apr-30 10:59N 10°22' W 061°31'0 0.0
2018-Apr-30 10:29N 10°22' W 061°31'0 0.0
2018-Apr-30 09:59N 10°22' W 061°31'0 0.0
2018-Apr-30 09:29N 10°22' W 061°31'0 0.0
2018-Apr-30 08:59N 10°22' W 061°31'0 0.0
2018-Apr-30 08:23N 10°22' W 061°31'0 0.0
2018-Apr-30 07:59N 10°22' W 061°31'0 0.0
2018-Apr-30 07:29N 10°22' W 061°31'0 0.0
2018-Apr-30 06:59N 10°22' W 061°31'0 0.0
2018-Apr-30 06:29N 10°22' W 061°31'0 0.0
2018-Apr-30 05:53N 10°22' W 061°31'0 0.0
2018-Apr-30 05:29N 10°22' W 061°31'0 0.0
2018-Apr-30 04:56N 10°22' W 061°31'0 0.0
2018-Apr-30 04:29N 10°22' W 061°31'0 0.0
2018-Apr-30 03:59N 10°22' W 061°31'0 0.0
2018-Apr-30 03:29N 10°22' W 061°31'0 0.0
2018-Apr-30 02:59N 10°22' W 061°31'0 0.0
2018-Apr-30 02:29N 10°22' W 061°31'0 0.0
2018-Apr-30 01:59N 10°22' W 061°31'0 0.0
2018-Apr-30 01:29N 10°22' W 061°31'0 0.0
2018-Apr-30 00:56N 10°22' W 061°31'0 0.1
2018-Apr-30 00:29N 10°22' W 061°31'0 0.0
2018-Apr-29 23:59N 10°22' W 061°31'0 0.1
2018-Apr-29 23:26N 10°22' W 061°31'3 6.7
2018-Apr-29 23:00N 10°24' W 061°34'4 8.2
2018-Apr-29 22:30N 10°27' W 061°36'4 7.8
2018-Apr-29 22:00N 10°30' W 061°39'4 7.8
2018-Apr-29 21:30N 10°33' W 061°41'4 8.1
2018-Apr-29 21:00N 10°36' W 061°44'5 8.9
2018-Apr-29 20:29N 10°39' W 061°47'4 8.1
2018-Apr-29 20:00N 10°43' W 061°49'4 7.8
2018-Apr-29 19:30N 10°47' W 061°50'4 8.0
2018-Apr-29 19:00N 10°50' W 061°52'  
Track history (hours):
 
Tides and Currents Weather Stations Pressure Air Temp Water Temp Dewpoint Dewpoint Depression Visibility Wind Speed Wind Dir Waves Ship Positions

Marte

Last reported at 2018-May-04 05:12 UTC. Time now 2018-May-28 09:36 UTC.
Position N 10°51' W 061°53'.
Warning: this ship's position is 24 days out of date.

Length 75 m; draft 6.1 m.

Type: Tanker. MMSI: 249891000.

Date/timePositionNaut miles runAvg speedWind from/ knotsBaromVisibWave heightAir tempDewpointWater temp
2018-May-04 05:12N 10°51' W 061°53'2 9.6
2018-May-04 04:59N 10°50' W 061°52'510.1
2018-May-04 04:30N 10°46' W 061°48'5 9.9
2018-May-04 03:58N 10°41' W 061°48'4 8.8
2018-May-04 03:30N 10°37' W 061°46'5 9.7
2018-May-04 03:00N 10°33' W 061°42'5 9.5
2018-May-04 02:30N 10°30' W 061°39'5 9.4
2018-May-04 02:00N 10°27' W 061°36'5 9.2
2018-May-04 01:30N 10°23' W 061°33'4 0.3
2018-May-03 15:07N 10°23' W 061°29'0 0.0
2018-May-03 15:00N 10°23' W 061°29'2 4.3
2018-May-03 14:30N 10°23' W 061°31'0 0.7
2018-May-03 13:59N 10°23' W 061°31'0 0.0
2018-May-03 13:26N 10°22' W 061°31'0 0.0
2018-May-03 12:59N 10°23' W 061°31'0 0.0
2018-May-03 12:29N 10°23' W 061°31'0 0.0
2018-May-03 11:47N 10°22' W 061°31'0 0.1
2018-May-03 11:26N 10°22' W 061°31'0 0.0
2018-May-03 10:56N 10°22' W 061°31'0 0.0
2018-May-03 10:29N 10°22' W 061°31'0 0.0
2018-May-03 09:56N 10°22' W 061°31'0 0.0
2018-May-03 09:29N 10°22' W 061°31'0 0.0
2018-May-03 08:59N 10°22' W 061°31'0 0.0
2018-May-03 08:26N 10°22' W 061°31'0 0.0
2018-May-03 07:56N 10°22' W 061°31'0 0.0
2018-May-03 07:29N 10°22' W 061°31'0 0.0
2018-May-03 06:59N 10°22' W 061°31'0 0.0
2018-May-03 06:29N 10°22' W 061°31'0 0.0
2018-May-03 05:56N 10°22' W 061°31'0 0.0
2018-May-03 05:29N 10°22' W 061°31'0 0.0
2018-May-03 04:59N 10°22' W 061°31'0 0.0
2018-May-03 04:26N 10°22' W 061°31'0 0.0
2018-May-03 03:59N 10°22' W 061°31'0 0.0
2018-May-03 03:29N 10°22' W 061°31'0 0.0
2018-May-03 02:59N 10°22' W 061°31'0 0.0
2018-May-03 02:29N 10°22' W 061°31'0 0.0
2018-May-03 01:59N 10°22' W 061°31'0 0.0
2018-May-03 01:29N 10°22' W 061°31'0 0.0
2018-May-03 00:59N 10°22' W 061°31'0 0.0
2018-May-03 00:29N 10°22' W 061°31'0 0.0
2018-May-02 23:59N 10°22' W 061°31'0 0.0
2018-May-02 23:29N 10°22' W 061°31'0 0.0
2018-May-02 22:50N 10°22' W 061°31'0 0.0
2018-May-02 22:29N 10°22' W 061°31'0 0.0
2018-May-02 21:59N 10°22' W 061°31'0 0.0
2018-May-02 21:29N 10°22' W 061°31'0 0.0
2018-May-02 20:56N 10°22' W 061°31'0 0.0
2018-May-02 20:26N 10°22' W 061°31'0 0.0
2018-May-02 19:44N 10°22' W 061°31'0 0.0
2018-May-02 19:29N 10°22' W 061°31'0 0.0
2018-May-02 18:56N 10°22' W 061°31'0 0.0
2018-May-02 18:29N 10°22' W 061°31'0 0.0
2018-May-02 17:56N 10°22' W 061°31'0 0.0
2018-May-02 17:29N 10°22' W 061°31'0 0.0
2018-May-02 16:56N 10°22' W 061°31'0 0.0
2018-May-02 16:23N 10°22' W 061°31'0 0.0
2018-May-02 15:59N 10°22' W 061°31'0 0.0
2018-May-02 15:29N 10°22' W 061°31'0 0.0
2018-May-02 14:59N 10°22' W 061°31'0 0.0
2018-May-02 14:29N 10°22' W 061°31'0 0.0
2018-May-02 13:59N 10°22' W 061°31'0 0.0
2018-May-02 13:26N 10°22' W 061°31'0 0.0
2018-May-02 12:59N 10°22' W 061°31'0 0.0
2018-May-02 12:29N 10°22' W 061°31'0 0.0
2018-May-02 11:56N 10°22' W 061°31'0 0.0
2018-May-02 11:29N 10°22' W 061°31'0 0.0
2018-May-02 10:56N 10°22' W 061°31'0 0.0
2018-May-02 10:29N 10°22' W 061°31'0 0.0
2018-May-02 09:59N 10°22' W 061°31'0 0.0
2018-May-02 09:29N 10°22' W 061°31'0 0.0
2018-May-02 08:59N 10°22' W 061°31'0 0.0
2018-May-02 08:29N 10°22' W 061°31'0 0.0
2018-May-02 07:59N 10°22' W 061°31'0 0.0
2018-May-02 07:29N 10°22' W 061°31'0 0.0
2018-May-02 06:59N 10°22' W 061°31'0 0.0
2018-May-02 06:29N 10°22' W 061°31'0 0.0
2018-May-02 05:59N 10°22' W 061°31'0 0.0
2018-May-02 05:29N 10°22' W 061°31'0 0.0
2018-May-02 04:59N 10°22' W 061°31'0 0.0
2018-May-02 04:23N 10°22' W 061°31'0 0.0
2018-May-02 03:59N 10°22' W 061°31'0 0.0
2018-May-02 03:26N 10°22' W 061°31'0 0.0
2018-May-02 02:59N 10°22' W 061°31'0 0.0
2018-May-02 02:29N 10°22' W 061°31'0 0.0
2018-May-02 01:59N 10°22' W 061°31'0 0.0
2018-May-02 01:26N 10°22' W 061°31'0 0.0
2018-May-02 00:59N 10°22' W 061°31'0 0.0
2018-May-02 00:26N 10°22' W 061°31'0 0.0
2018-May-01 23:59N 10°22' W 061°31'0 0.0
2018-May-01 23:29N 10°22' W 061°31'0 0.0
2018-May-01 22:59N 10°22' W 061°31'0 0.0
2018-May-01 22:29N 10°22' W 061°31'0 0.0
2018-May-01 21:59N 10°22' W 061°31'0 0.0
2018-May-01 21:29N 10°22' W 061°31'0 0.0
2018-May-01 20:59N 10°22' W 061°31'0 0.0
2018-May-01 20:29N 10°22' W 061°31'0 0.0
2018-May-01 19:50N 10°22' W 061°31'0 0.0
2018-May-01 19:26N 10°22' W 061°31'0 0.0
2018-May-01 18:56N 10°22' W 061°31'0 0.0
2018-May-01 18:29N 10°22' W 061°31'0 0.0
2018-May-01 17:59N 10°22' W 061°31'0 0.0
2018-May-01 17:29N 10°22' W 061°31'0 0.0
2018-May-01 16:59N 10°22' W 061°31'0 0.0
2018-May-01 16:26N 10°22' W 061°31'0 0.0
2018-May-01 15:59N 10°22' W 061°31'0 0.0
2018-May-01 15:29N 10°22' W 061°31'0 0.0
2018-May-01 14:53N 10°22' W 061°31'0 0.0
2018-May-01 14:29N 10°22' W 061°31'0 0.1
2018-May-01 13:59N 10°22' W 061°31'0 0.0
2018-May-01 13:29N 10°22' W 061°31'0 0.0
2018-May-01 12:56N 10°22' W 061°31'0 0.0
2018-May-01 12:29N 10°22' W 061°31'0 0.0
2018-May-01 11:53N 10°22' W 061°31'0 0.0
2018-May-01 11:29N 10°22' W 061°31'0 0.0
2018-May-01 10:59N 10°22' W 061°31'0 0.0
2018-May-01 10:29N 10°22' W 061°31'0 0.0
2018-May-01 09:56N 10°22' W 061°31'0 0.0
2018-May-01 09:29N 10°22' W 061°31'0 0.0
2018-May-01 08:59N 10°22' W 061°31'0 0.0
2018-May-01 08:23N 10°22' W 061°31'0 0.0
2018-May-01 07:56N 10°22' W 061°31'0 0.0
2018-May-01 07:29N 10°22' W 061°31'0 0.0
2018-May-01 06:59N 10°23' W 061°31'0 0.0
2018-May-01 06:20N 10°22' W 061°31'0 0.1
2018-May-01 05:59N 10°23' W 061°31'0 0.0
2018-May-01 05:29N 10°23' W 061°31'0 0.0
2018-May-01 04:47N 10°23' W 061°31'0 0.1
2018-May-01 04:26N 10°22' W 061°31'0 0.0
2018-May-01 03:59N 10°22' W 061°31'0 0.0
2018-May-01 03:26N 10°22' W 061°31'0 0.0
2018-May-01 02:59N 10°22' W 061°31'0 0.0
2018-May-01 02:29N 10°22' W 061°31'0 0.0
2018-May-01 01:59N 10°22' W 061°31'0 0.0
2018-May-01 01:26N 10°22' W 061°31'0 0.0
2018-May-01 00:56N 10°22' W 061°31'0 0.0
2018-May-01 00:26N 10°22' W 061°31'0 0.0
2018-Apr-30 23:56N 10°22' W 061°31'0 0.0
2018-Apr-30 23:20N 10°22' W 061°31'0 0.0
2018-Apr-30 22:56N 10°22' W 061°31'0 0.0
2018-Apr-30 22:29N 10°22' W 061°31'0 0.0
2018-Apr-30 21:56N 10°22' W 061°31'0 0.1
2018-Apr-30 21:29N 10°22' W 061°31'0 0.0
2018-Apr-30 20:59N 10°22' W 061°31'0 0.0
2018-Apr-30 20:23N 10°22' W 061°31'0 0.0
2018-Apr-30 19:53N 10°22' W 061°31'0 0.0
2018-Apr-30 18:56N 10°22' W 061°31'0 0.1
2018-Apr-30 18:26N 10°23' W 061°31'0 0.1
2018-Apr-30 17:59N 10°22' W 061°31'0 0.0
2018-Apr-30 17:29N 10°22' W 061°31'0 0.0
2018-Apr-30 16:59N 10°22' W 061°31'0 0.0
2018-Apr-30 16:29N 10°22' W 061°31'0 0.0
2018-Apr-30 15:59N 10°22' W 061°31'0 0.0
2018-Apr-30 15:29N 10°22' W 061°31'0 0.0
2018-Apr-30 14:56N 10°22' W 061°31'0 0.0
2018-Apr-30 14:26N 10°22' W 061°31'0 0.0
2018-Apr-30 13:59N 10°22' W 061°31'0 0.0
2018-Apr-30 13:26N 10°22' W 061°31'0 0.0
2018-Apr-30 12:56N 10°22' W 061°31'0 0.0
2018-Apr-30 12:29N 10°22' W 061°31'0 0.0
2018-Apr-30 11:56N 10°22' W 061°31'0 0.0
2018-Apr-30 11:26N 10°22' W 061°31'0 0.0
2018-Apr-30 10:59N 10°22' W 061°31'0 0.0
2018-Apr-30 10:29N 10°22' W 061°31'0 0.0
2018-Apr-30 09:59N 10°22' W 061°31'0 0.0
2018-Apr-30 09:29N 10°22' W 061°31'0 0.0
2018-Apr-30 08:59N 10°22' W 061°31'0 0.0
2018-Apr-30 08:23N 10°22' W 061°31'0 0.0
2018-Apr-30 07:59N 10°22' W 061°31'0 0.0
2018-Apr-30 07:29N 10°22' W 061°31'0 0.0
2018-Apr-30 06:59N 10°22' W 061°31'0 0.0
2018-Apr-30 06:29N 10°22' W 061°31'0 0.0
2018-Apr-30 05:53N 10°22' W 061°31'0 0.0
2018-Apr-30 05:29N 10°22' W 061°31'0 0.0
2018-Apr-30 04:56N 10°22' W 061°31'0 0.0
2018-Apr-30 04:29N 10°22' W 061°31'0 0.0
2018-Apr-30 03:59N 10°22' W 061°31'0 0.0
2018-Apr-30 03:29N 10°22' W 061°31'0 0.0
2018-Apr-30 02:59N 10°22' W 061°31'0 0.0
2018-Apr-30 02:29N 10°22' W 061°31'0 0.0
2018-Apr-30 01:59N 10°22' W 061°31'0 0.0
2018-Apr-30 01:29N 10°22' W 061°31'0 0.0
2018-Apr-30 00:56N 10°22' W 061°31'0 0.1
2018-Apr-30 00:29N 10°22' W 061°31'0 0.0
2018-Apr-29 23:59N 10°22' W 061°31'0 0.1
2018-Apr-29 23:26N 10°22' W 061°31'3 6.7
2018-Apr-29 23:00N 10°24' W 061°34'4 8.2
2018-Apr-29 22:30N 10°27' W 061°36'4 7.8
2018-Apr-29 22:00N 10°30' W 061°39'4 7.8
2018-Apr-29 21:30N 10°33' W 061°41'4 8.1
2018-Apr-29 21:00N 10°36' W 061°44'5 8.9
2018-Apr-29 20:29N 10°39' W 061°47'4 8.1
2018-Apr-29 20:00N 10°43' W 061°49'4 7.8
2018-Apr-29 19:30N 10°47' W 061°50'4 8.0
2018-Apr-29 19:00N 10°50' W 061°52'  

Dump ship's entire track history